createdAt,value
2023-03-19T00:00:53.424Z,99411.28
2023-03-19T00:03:21.408Z,99419.41
2023-03-19T00:05:53.249Z,99410.63
2023-03-19T00:08:21.040Z,99419.63
2023-03-19T00:10:48.697Z,99416.16
2023-03-19T00:13:16.717Z,99409.06
2023-03-19T00:15:44.411Z,99412.56
2023-03-19T00:18:13.417Z,99410.22
2023-03-19T00:20:41.194Z,99419.81
2023-03-19T00:23:09.089Z,99410.88
2023-03-19T00:25:37.160Z,99422.44
2023-03-19T00:28:05.010Z,99423.97
2023-03-19T00:30:33.214Z,99422.13
2023-03-19T00:33:01.316Z,99424.91
2023-03-19T00:35:30.542Z,99428.09
2023-03-19T00:37:58.750Z,99428.56
2023-03-19T00:40:26.431Z,99425.44
2023-03-19T00:42:54.379Z,99431.88
2023-03-19T00:45:22.292Z,99428.25
2023-03-19T00:47:50.031Z,99428.94
2023-03-19T00:50:22.162Z,99428.44
2023-03-19T00:52:54.336Z,99425.66
2023-03-19T00:55:22.017Z,99424.19
2023-03-19T00:57:50.092Z,99429.97
2023-03-19T01:00:19.560Z,99429.38
2023-03-19T01:02:47.235Z,99433.84
2023-03-19T01:05:14.995Z,99425.75
2023-03-19T01:07:42.630Z,99422.94
2023-03-19T01:10:12.537Z,99427.88
2023-03-19T01:12:40.177Z,99430.03
2023-03-19T01:15:09.210Z,99426.22
2023-03-19T01:17:37.667Z,99438.31
2023-03-19T01:20:08.821Z,99432.50
2023-03-19T01:22:37.632Z,99423.56
2023-03-19T01:25:05.845Z,99429.38
2023-03-19T01:27:34.837Z,99424.75
2023-03-19T01:30:02.853Z,99428.22
2023-03-19T01:32:31.176Z,99428.56
2023-03-19T01:34:58.912Z,99426.06
2023-03-19T01:37:26.628Z,99424.63
2023-03-19T01:39:54.331Z,99427.69
2023-03-19T01:42:21.998Z,99428.31
2023-03-19T01:44:51.024Z,99431.25
2023-03-19T01:47:27.030Z,99436.53
2023-03-19T01:49:56.880Z,99430.94
2023-03-19T01:52:26.417Z,99430.78
2023-03-19T01:54:55.719Z,99432.25
2023-03-19T01:57:25.175Z,99434.25
2023-03-19T01:59:56.077Z,99431.31
2023-03-19T02:02:29.346Z,99430.78
2023-03-19T02:04:59.865Z,99434.72
2023-03-19T02:07:29.649Z,99432.56
2023-03-19T02:09:57.916Z,99434.50
2023-03-19T02:12:25.631Z,99435.13
2023-03-19T02:14:55.077Z,99443.13
2023-03-19T02:17:23.035Z,99436.03
2023-03-19T02:19:56.866Z,99432.88
2023-03-19T02:22:28.794Z,99433.59
2023-03-19T02:25:00.897Z,99438.03
2023-03-19T02:27:29.951Z,99440.53
2023-03-19T02:29:57.563Z,99438.41
2023-03-19T02:32:25.323Z,99434.78
2023-03-19T02:34:53.101Z,99429.00
2023-03-19T02:37:23.612Z,99434.09
2023-03-19T02:39:55.799Z,99430.94
2023-03-19T02:42:26.200Z,99432.06
2023-03-19T02:44:55.438Z,99433.25
2023-03-19T02:47:23.579Z,99438.31
2023-03-19T02:49:51.237Z,99428.78
2023-03-19T02:52:20.681Z,99432.72
2023-03-19T02:54:48.504Z,99440.50
2023-03-19T02:57:16.460Z,99436.31
2023-03-19T02:59:44.259Z,99446.06
2023-03-19T03:02:13.653Z,99456.63
2023-03-19T03:04:41.908Z,99452.91
2023-03-19T03:07:10.263Z,99453.78
2023-03-19T03:09:37.954Z,99457.53
2023-03-19T03:12:07.166Z,99460.88
2023-03-19T03:14:35.138Z,99453.78
2023-03-19T03:17:03.122Z,99456.22
2023-03-19T03:19:32.282Z,99460.56
2023-03-19T03:22:00.966Z,99457.63
2023-03-19T03:24:28.871Z,99467.94
2023-03-19T03:26:56.637Z,99459.88
2023-03-19T03:29:24.475Z,99461.72
2023-03-19T03:31:52.319Z,99458.72
2023-03-19T03:34:20.358Z,99458.91
2023-03-19T03:36:49.318Z,99465.19
2023-03-19T03:39:17.015Z,99458.25
2023-03-19T03:41:44.693Z,99460.88
2023-03-19T03:44:12.624Z,99465.84
2023-03-19T03:46:40.539Z,99468.94
2023-03-19T03:49:08.614Z,99457.69
2023-03-19T03:51:36.562Z,99461.13
2023-03-19T03:54:05.894Z,99468.22
2023-03-19T03:56:34.080Z,99473.19
2023-03-19T03:59:02.118Z,99478.41
2023-03-19T04:01:29.836Z,99482.81
2023-03-19T04:03:57.930Z,99487.94
2023-03-19T04:06:27.269Z,99490.25
2023-03-19T04:08:55.850Z,99478.66
2023-03-19T04:11:24.810Z,99490.28
2023-03-19T04:13:52.423Z,99496.16
2023-03-19T04:16:20.036Z,99498.53
2023-03-19T04:18:47.793Z,99501.31
2023-03-19T04:21:15.738Z,99495.38
2023-03-19T04:23:45.236Z,99504.06
2023-03-19T04:26:13.166Z,99506.69
2023-03-19T04:28:42.163Z,99505.72
2023-03-19T04:31:10.829Z,99513.28
2023-03-19T04:33:38.721Z,99505.34
2023-03-19T04:36:07.307Z,99502.84
2023-03-19T04:38:34.921Z,99505.34
2023-03-19T04:41:02.678Z,99506.09
2023-03-19T04:43:30.326Z,99506.94
2023-03-19T04:45:59.477Z,99512.03
2023-03-19T04:48:27.452Z,99514.19
2023-03-19T04:50:57.072Z,99511.13
2023-03-19T04:53:25.079Z,99515.84
2023-03-19T04:55:52.726Z,99507.75
2023-03-19T04:58:20.308Z,99514.00
2023-03-19T05:00:48.254Z,99524.31
2023-03-19T05:03:17.469Z,99524.69
2023-03-19T05:05:45.249Z,99515.31
2023-03-19T05:08:13.644Z,99530.19
2023-03-19T05:10:41.643Z,99529.88
2023-03-19T05:13:09.324Z,99527.59
2023-03-19T05:15:37.266Z,99539.16
2023-03-19T05:18:05.102Z,99537.34
2023-03-19T05:20:34.305Z,99541.63
2023-03-19T05:23:02.803Z,99533.56
2023-03-19T05:25:30.533Z,99549.41
2023-03-19T05:27:58.133Z,99538.53
2023-03-19T05:30:27.312Z,99544.75
2023-03-19T05:32:57.147Z,99539.13
2023-03-19T05:35:24.793Z,99533.50
2023-03-19T05:37:53.875Z,99538.59
2023-03-19T05:40:22.225Z,99542.72
2023-03-19T05:42:50.314Z,99540.91
2023-03-19T05:45:18.424Z,99544.72
2023-03-19T05:47:48.720Z,99537.13
2023-03-19T05:50:16.665Z,99539.47
2023-03-19T05:52:44.625Z,99547.75
2023-03-19T05:55:13.697Z,99550.56
2023-03-19T05:57:42.315Z,99550.72
2023-03-19T06:00:12.400Z,99560.78
2023-03-19T06:02:42.293Z,99553.34
2023-03-19T06:05:10.954Z,99565.91
2023-03-19T06:07:39.234Z,99559.13
2023-03-19T06:10:07.993Z,99567.03
2023-03-19T06:12:37.218Z,99569.38
2023-03-19T06:15:05.510Z,99576.09
2023-03-19T06:17:33.382Z,99569.34
2023-03-19T06:20:01.173Z,99567.53
2023-03-19T06:22:28.974Z,99568.19
2023-03-19T06:24:56.608Z,99574.63
2023-03-19T06:27:24.663Z,99579.72
2023-03-19T06:29:53.626Z,99579.09
2023-03-19T06:32:21.318Z,99585.03
2023-03-19T06:34:48.953Z,99588.53
2023-03-19T06:37:16.951Z,99587.03
2023-03-19T06:39:44.607Z,99583.69
2023-03-19T06:42:12.284Z,99593.75
2023-03-19T06:44:40.207Z,99591.47
2023-03-19T06:47:10.036Z,99595.75
2023-03-19T06:49:37.598Z,99607.50
2023-03-19T06:52:06.010Z,99605.19
2023-03-19T06:54:33.807Z,99604.88
2023-03-19T06:57:01.498Z,99608.31
2023-03-19T06:59:29.180Z,99608.28
2023-03-19T07:01:57.157Z,99604.38
2023-03-19T07:04:26.815Z,99614.09
2023-03-19T07:06:54.662Z,99612.47
2023-03-19T07:09:23.463Z,99614.91
2023-03-19T07:11:51.165Z,99613.94
2023-03-19T07:14:18.841Z,99619.38
2023-03-19T07:16:46.552Z,99615.41
2023-03-19T07:19:14.201Z,99620.41
2023-03-19T07:21:43.309Z,99622.84
2023-03-19T07:24:11.033Z,99618.03
2023-03-19T07:26:38.778Z,99624.63
2023-03-19T07:29:06.478Z,99614.34
2023-03-19T07:31:34.175Z,99617.75
2023-03-19T07:34:01.825Z,99613.59
2023-03-19T07:36:29.603Z,99609.63
2023-03-19T07:38:58.848Z,99614.06
2023-03-19T07:41:27.380Z,99617.31
2023-03-19T07:43:55.031Z,99614.78
2023-03-19T07:46:22.737Z,99626.31
2023-03-19T07:48:50.390Z,99621.22
2023-03-19T07:51:18.001Z,99616.13
2023-03-19T07:53:45.697Z,99619.25
2023-03-19T07:56:14.716Z,99615.50
2023-03-19T07:58:42.385Z,99618.81
2023-03-19T08:01:10.196Z,99607.41
2023-03-19T08:03:38.551Z,99611.75
2023-03-19T08:06:07.130Z,99610.91
2023-03-19T08:08:35.010Z,99613.28
2023-03-19T08:11:02.896Z,99601.63
2023-03-19T08:13:31.948Z,99600.63
2023-03-19T08:15:59.728Z,99603.19
2023-03-19T08:18:27.700Z,99608.34
2023-03-19T08:20:55.702Z,99605.47
2023-03-19T08:23:23.446Z,99609.00
2023-03-19T08:25:52.010Z,99610.66
2023-03-19T08:28:19.703Z,99603.22
2023-03-19T08:30:49.044Z,99605.91
2023-03-19T08:33:17.314Z,99606.91
2023-03-19T08:35:45.016Z,99606.50
2023-03-19T08:38:12.717Z,99604.84
2023-03-19T08:40:40.519Z,99592.97
2023-03-19T08:43:08.314Z,99603.41
2023-03-19T08:45:36.055Z,99604.25
2023-03-19T08:48:05.257Z,99598.03
2023-03-19T08:50:33.745Z,99603.97
2023-03-19T08:53:01.627Z,99600.94
2023-03-19T08:55:29.290Z,99599.66
2023-03-19T08:57:56.880Z,99610.75
2023-03-19T09:00:24.770Z,99609.50
2023-03-19T09:02:52.482Z,99604.03
2023-03-19T09:05:22.489Z,99607.09
2023-03-19T09:07:51.984Z,99605.97
2023-03-19T09:10:19.586Z,99603.19
2023-03-19T09:12:48.564Z,99612.94
2023-03-19T09:15:31.587Z,99613.88
2023-03-19T09:18:15.110Z,99607.31
2023-03-19T09:20:44.835Z,99616.38
2023-03-19T09:23:12.495Z,99617.22
2023-03-19T09:25:40.360Z,99620.69
2023-03-19T09:28:08.140Z,99615.94
2023-03-19T09:30:36.067Z,99621.84
2023-03-19T09:33:05.729Z,99621.69
2023-03-19T09:35:34.782Z,99623.72
2023-03-19T09:38:04.241Z,99622.91
2023-03-19T09:40:37.742Z,99622.97
2023-03-19T09:43:42.545Z,99619.22
2023-03-19T09:46:15.590Z,99618.72
2023-03-19T09:48:50.515Z,99616.91
2023-03-19T09:51:22.736Z,99614.19
2023-03-19T09:53:57.382Z,99619.91
2023-03-19T09:56:27.088Z,99614.84
2023-03-19T09:58:54.949Z,99616.81
2023-03-19T10:01:27.709Z,99611.41
2023-03-19T10:04:09.413Z,99618.09
2023-03-19T10:06:40.225Z,99616.41
2023-03-19T10:09:27.059Z,99607.56
2023-03-19T10:12:06.922Z,99605.63
2023-03-19T10:14:53.289Z,99607.28
2023-03-19T10:17:26.549Z,99600.25
2023-03-19T10:19:59.290Z,99603.00
2023-03-19T10:22:30.994Z,99598.09
2023-03-19T10:25:01.164Z,99599.03
2023-03-19T10:27:29.707Z,99600.19
2023-03-19T10:29:57.844Z,99593.69
2023-03-19T10:32:37.087Z,99587.91
2023-03-19T10:35:10.219Z,99590.22
2023-03-19T10:37:39.421Z,99583.47
2023-03-19T10:40:18.608Z,99583.03
2023-03-19T10:43:03.618Z,99583.44
2023-03-19T10:45:34.596Z,99584.09
2023-03-19T10:48:04.832Z,99577.66
2023-03-19T10:50:36.086Z,99583.28
2023-03-19T10:53:08.891Z,99586.16
2023-03-19T10:55:37.917Z,99595.69
2023-03-19T10:58:07.426Z,99588.44
2023-03-19T11:00:36.353Z,99592.41
2023-03-19T11:03:05.502Z,99589.09
2023-03-19T11:05:34.798Z,99585.28
2023-03-19T11:08:04.714Z,99591.25
2023-03-19T11:10:35.931Z,99583.50
2023-03-19T11:13:16.347Z,99587.31
2023-03-19T11:15:44.156Z,99591.03
2023-03-19T11:18:18.107Z,99582.03
2023-03-19T11:20:51.778Z,99589.19
2023-03-19T11:23:21.280Z,99597.47
2023-03-19T11:25:52.354Z,99589.97
2023-03-19T11:28:26.294Z,99595.19
2023-03-19T11:31:03.573Z,99594.25
2023-03-19T11:33:49.104Z,99592.44
2023-03-19T11:36:23.524Z,99594.72
2023-03-19T11:39:03.234Z,99589.41
2023-03-19T11:41:41.828Z,99591.88
2023-03-19T11:44:16.412Z,99591.44
2023-03-19T11:46:54.303Z,99594.56
2023-03-19T11:49:47.237Z,99589.91
2023-03-19T11:52:22.086Z,99597.84
2023-03-19T11:55:02.633Z,99597.25
2023-03-19T11:57:46.384Z,99591.16
2023-03-19T12:00:29.606Z,99604.84
2023-03-19T12:03:17.809Z,99607.91
2023-03-19T12:05:56.260Z,99618.03
2023-03-19T12:08:39.387Z,99610.63
2023-03-19T12:11:18.811Z,99618.63
2023-03-19T12:13:59.504Z,99613.28
2023-03-19T12:16:46.230Z,99619.22
2023-03-19T12:19:32.025Z,99612.47
2023-03-19T12:22:09.992Z,99621.09
2023-03-19T12:24:57.636Z,99621.28
2023-03-19T12:27:34.361Z,99630.47
2023-03-19T12:30:07.444Z,99630.28
2023-03-19T12:32:54.323Z,99629.84
2023-03-19T12:35:27.387Z,99633.16
2023-03-19T12:38:00.922Z,99629.91
2023-03-19T12:40:34.180Z,99631.69
2023-03-19T12:43:07.548Z,99631.38
2023-03-19T12:45:37.664Z,99635.03
2023-03-19T12:48:12.574Z,99640.88
2023-03-19T12:50:43.522Z,99648.16
2023-03-19T12:53:26.557Z,99641.16
2023-03-19T12:55:58.827Z,99643.81
2023-03-19T12:58:38.501Z,99644.69
2023-03-19T13:01:13.454Z,99645.47
2023-03-19T13:03:51.666Z,99644.03
2023-03-19T13:06:24.249Z,99650.78
2023-03-19T13:08:56.706Z,99649.78
2023-03-19T13:11:35.704Z,99650.84
2023-03-19T13:14:09.576Z,99647.72
2023-03-19T13:16:45.332Z,99644.00
2023-03-19T13:19:24.283Z,99659.75
2023-03-19T13:21:55.435Z,99650.75
2023-03-19T13:24:28.195Z,99652.25
2023-03-19T13:26:58.711Z,99655.28
2023-03-19T13:29:28.763Z,99647.84
2023-03-19T13:32:02.553Z,99651.44
2023-03-19T13:34:33.902Z,99657.47
2023-03-19T13:37:07.990Z,99647.81
2023-03-19T13:39:36.964Z,99647.06
2023-03-19T13:42:37.505Z,99643.63
2023-03-19T13:45:26.388Z,99644.09
2023-03-19T13:47:54.669Z,99641.19
2023-03-19T13:50:34.141Z,99639.63
2023-03-19T13:53:37.216Z,99635.84
2023-03-19T13:56:15.713Z,99639.75
2023-03-19T13:58:52.066Z,99631.69
2023-03-19T14:01:40.502Z,99626.16
2023-03-19T14:04:18.697Z,99623.41
2023-03-19T14:06:50.134Z,99622.41
2023-03-19T14:09:35.831Z,99626.78
2023-03-19T14:12:12.243Z,99612.03
2023-03-19T14:14:43.662Z,99603.41
2023-03-19T14:17:16.293Z,99614.72
2023-03-19T14:19:44.519Z,99598.69
2023-03-19T14:22:21.407Z,99592.53
2023-03-19T14:25:02.972Z,99588.47
2023-03-19T14:27:33.812Z,99590.88
2023-03-19T14:30:09.316Z,99592.81
2023-03-19T14:32:40.818Z,99590.44
2023-03-19T14:35:16.166Z,99592.38
2023-03-19T14:37:50.250Z,99595.81
2023-03-19T14:40:21.827Z,99596.94
2023-03-19T14:42:59.836Z,99595.63
2023-03-19T14:45:42.628Z,99595.19
2023-03-19T14:48:21.058Z,99591.50
2023-03-19T14:50:58.808Z,99591.50
2023-03-19T14:53:35.876Z,99591.16
2023-03-19T14:56:11.188Z,99590.03
2023-03-19T14:58:38.927Z,99590.84
2023-03-19T15:01:08.472Z,99588.28
2023-03-19T15:03:38.576Z,99582.22
2023-03-19T15:06:11.006Z,99586.09
2023-03-19T15:08:42.825Z,99592.59
2023-03-19T15:11:39.883Z,99581.28
2023-03-19T15:14:28.198Z,99587.09
2023-03-19T15:17:02.787Z,99586.50
2023-03-19T15:19:32.810Z,99591.00
2023-03-19T15:22:14.116Z,99587.50
2023-03-19T15:24:43.612Z,99587.16
2023-03-19T15:27:19.260Z,99584.59
2023-03-19T15:29:49.096Z,99587.34
2023-03-19T15:35:27.293Z,99592.91
2023-03-19T15:38:00.700Z,99590.72
2023-03-19T15:40:32.498Z,99594.50
2023-03-19T15:43:03.394Z,99601.34
2023-03-19T15:45:34.485Z,99598.56
2023-03-19T15:48:05.750Z,99598.47
2023-03-19T15:50:36.891Z,99591.16
2023-03-19T15:53:08.888Z,99603.53
2023-03-19T15:55:38.727Z,99606.00
2023-03-19T15:58:10.477Z,99606.91
2023-03-19T16:00:40.213Z,99609.16
2023-03-19T16:03:12.251Z,99611.03
2023-03-19T16:05:40.495Z,99612.66
2023-03-19T16:08:18.229Z,99615.94
2023-03-19T16:10:47.579Z,99621.06
2023-03-19T16:13:24.312Z,99623.75
2023-03-19T16:15:57.162Z,99626.53
2023-03-19T16:18:26.337Z,99627.09
2023-03-19T16:21:06.969Z,99637.63
2023-03-19T16:23:37.212Z,99633.13
2023-03-19T16:26:17.795Z,99631.69
2023-03-19T16:28:50.014Z,99631.88
2023-03-19T16:31:23.258Z,99628.44
2023-03-19T16:33:53.372Z,99635.34
2023-03-19T16:36:22.437Z,99642.69
2023-03-19T16:38:59.669Z,99636.63
2023-03-19T16:41:33.689Z,99649.78
2023-03-19T16:44:19.995Z,99659.88
2023-03-19T16:46:47.685Z,99659.31
2023-03-19T16:49:15.287Z,99664.00
2023-03-19T16:51:43.206Z,99663.88
2023-03-19T16:54:13.797Z,99675.31
2023-03-19T16:56:42.981Z,99673.25
2023-03-19T16:59:20.928Z,99667.50
2023-03-19T17:01:48.586Z,99678.53
2023-03-19T17:04:17.645Z,99679.94
2023-03-19T17:06:45.430Z,99683.81
2023-03-19T17:09:13.227Z,99685.91
2023-03-19T17:11:44.008Z,99689.56
2023-03-19T17:14:16.700Z,99696.16
2023-03-19T17:16:48.389Z,99694.53
2023-03-19T17:19:19.153Z,99690.63
2023-03-19T17:21:48.019Z,99697.16
2023-03-19T17:24:24.175Z,99703.94
2023-03-19T17:26:54.206Z,99699.72
2023-03-19T17:29:24.983Z,99713.88
2023-03-19T17:31:53.596Z,99710.63
2023-03-19T17:34:23.239Z,99706.28
2023-03-19T17:36:53.188Z,99715.53
2023-03-19T17:39:21.669Z,99722.28
2023-03-19T17:41:49.550Z,99721.16
2023-03-19T17:44:18.559Z,99728.91
2023-03-19T17:46:49.831Z,99733.63
2023-03-19T17:49:22.389Z,99737.72
2023-03-19T17:51:51.367Z,99737.56
2023-03-19T17:54:19.848Z,99742.94
2023-03-19T17:56:47.725Z,99748.81
2023-03-19T17:59:15.909Z,99745.47
2023-03-19T18:01:47.329Z,99753.53
2023-03-19T18:04:18.542Z,99755.72
2023-03-19T18:06:49.549Z,99750.41
2023-03-19T18:09:20.457Z,99750.25
2023-03-19T18:11:48.500Z,99754.91
2023-03-19T18:14:16.420Z,99755.88
2023-03-19T18:16:47.385Z,99758.53
2023-03-19T18:19:23.332Z,99761.81
2023-03-19T18:21:51.301Z,99764.84
2023-03-19T18:24:19.222Z,99768.41
2023-03-19T18:26:47.119Z,99760.88
2023-03-19T18:29:16.328Z,99762.88
2023-03-19T18:31:49.226Z,99763.47
2023-03-19T18:34:18.253Z,99759.09
2023-03-19T18:36:46.167Z,99760.09
2023-03-19T18:39:15.435Z,99768.84
2023-03-19T18:41:43.855Z,99769.28
2023-03-19T18:44:12.156Z,99769.13
2023-03-19T18:46:40.372Z,99774.25
2023-03-19T18:49:20.867Z,99772.72
2023-03-19T18:52:01.703Z,99782.38
2023-03-19T18:54:31.876Z,99783.97
2023-03-19T18:57:01.164Z,99785.09
2023-03-19T18:59:32.648Z,99792.59
2023-03-19T19:02:03.419Z,99788.75
2023-03-19T19:04:32.706Z,99796.25
2023-03-19T19:07:01.592Z,99800.97
2023-03-19T19:09:29.303Z,99801.03
2023-03-19T19:12:00.705Z,99797.84
2023-03-19T19:14:29.090Z,99804.53
2023-03-19T19:16:57.061Z,99807.75
2023-03-19T19:19:27.673Z,99819.56
2023-03-19T19:21:56.870Z,99812.28
2023-03-19T19:24:24.657Z,99812.94
2023-03-19T19:26:54.137Z,99817.66
2023-03-19T19:29:24.982Z,99826.56
2023-03-19T19:31:53.898Z,99824.94
2023-03-19T19:34:22.112Z,99829.09
2023-03-19T19:36:51.029Z,99825.41
2023-03-19T19:39:20.371Z,99823.47
2023-03-19T19:41:48.838Z,99827.75
2023-03-19T19:44:19.956Z,99837.69
2023-03-19T19:46:47.765Z,99836.50
2023-03-19T19:49:16.408Z,99834.19
2023-03-19T19:51:44.096Z,99832.88
2023-03-19T19:54:11.895Z,99845.75
2023-03-19T19:56:41.777Z,99843.09
2023-03-19T19:59:14.292Z,99848.72
2023-03-19T20:01:42.088Z,99840.09
2023-03-19T20:04:13.733Z,99843.38
2023-03-19T20:06:41.504Z,99848.66
2023-03-19T20:09:09.649Z,99850.78
2023-03-19T20:11:37.697Z,99845.69
2023-03-19T20:14:06.894Z,99860.53
2023-03-19T20:16:34.693Z,99858.38
2023-03-19T20:19:02.946Z,99863.78
2023-03-19T20:21:30.919Z,99864.94
2023-03-19T20:23:58.843Z,99862.97
2023-03-19T20:26:27.044Z,99870.03
2023-03-19T20:28:55.924Z,99868.22
2023-03-19T20:31:27.340Z,99878.72
2023-03-19T20:33:55.352Z,99881.94
2023-03-19T20:36:23.236Z,99877.91
2023-03-19T20:38:52.686Z,99883.81
2023-03-19T20:41:22.838Z,99888.66
2023-03-19T20:43:51.902Z,99895.09
2023-03-19T20:46:21.719Z,99892.28
2023-03-19T20:48:51.238Z,99897.69
2023-03-19T20:51:21.364Z,99899.81
2023-03-19T20:53:49.781Z,99903.28
2023-03-19T20:56:19.294Z,99906.94
2023-03-19T20:58:47.571Z,99902.63
2023-03-19T21:01:17.884Z,99918.63
2023-03-19T21:03:45.766Z,99923.06
2023-03-19T21:06:19.257Z,99917.09
2023-03-19T21:08:48.841Z,99921.75
2023-03-19T21:11:18.906Z,99927.22
2023-03-19T21:13:47.879Z,99931.00
2023-03-19T21:16:18.572Z,99928.56
2023-03-19T21:18:46.872Z,99931.41
2023-03-19T21:21:17.579Z,99930.88
2023-03-19T21:23:57.345Z,99935.72
2023-03-19T21:26:26.008Z,99934.06
2023-03-19T21:28:56.665Z,99936.75
2023-03-19T21:31:24.394Z,99931.91
2023-03-19T21:33:52.992Z,99935.22
2023-03-19T21:36:22.180Z,99934.13
2023-03-19T21:38:50.865Z,99941.03
2023-03-19T21:41:23.708Z,99948.31
2023-03-19T21:43:54.420Z,99942.41
2023-03-19T21:46:26.224Z,99955.31
2023-03-19T21:48:55.287Z,99954.53
2023-03-19T21:51:25.499Z,99957.38
2023-03-19T21:53:53.504Z,99950.78
2023-03-19T21:56:24.090Z,99949.44
2023-03-19T21:58:53.171Z,99956.38
2023-03-19T22:01:23.559Z,99949.09
2023-03-19T22:03:51.979Z,99958.34
2023-03-19T22:06:19.801Z,99953.91
2023-03-19T22:08:49.262Z,99953.06
2023-03-19T22:11:19.663Z,99955.03
2023-03-19T22:13:47.778Z,99954.19
2023-03-19T22:16:19.991Z,99955.56
2023-03-19T22:18:48.261Z,99953.56
2023-03-19T22:21:17.857Z,99955.56
2023-03-19T22:23:46.821Z,99956.84
2023-03-19T22:26:30.269Z,99959.84
2023-03-19T22:29:00.713Z,99953.38
2023-03-19T22:31:29.218Z,99955.03
2023-03-19T22:33:57.474Z,99955.38
2023-03-19T22:36:25.567Z,99946.63
2023-03-19T22:38:53.442Z,99953.75
2023-03-19T22:41:28.872Z,99953.75
2023-03-19T22:43:58.288Z,99946.47
2023-03-19T22:46:26.622Z,99949.44
2023-03-19T22:48:54.456Z,99940.69
2023-03-19T22:51:24.942Z,99940.84
2023-03-19T22:53:52.762Z,99947.81
2023-03-19T22:56:22.029Z,99944.66
2023-03-19T22:58:51.271Z,99942.69
2023-03-19T23:01:35.669Z,99946.16
2023-03-19T23:04:18.373Z,99945.81
2023-03-19T23:06:46.582Z,99937.59
2023-03-19T23:09:16.805Z,99940.19
2023-03-19T23:11:45.061Z,99938.06
2023-03-19T23:14:27.876Z,99941.19
2023-03-19T23:16:56.715Z,99940.88
2023-03-19T23:19:29.086Z,99940.91
2023-03-19T23:21:57.808Z,99943.09
2023-03-19T23:24:25.919Z,99939.00
2023-03-19T23:26:56.017Z,99944.69
2023-03-19T23:29:27.893Z,99946.25
2023-03-19T23:31:55.758Z,99945.13
2023-03-19T23:34:23.429Z,99955.91
2023-03-19T23:36:51.058Z,99950.78
2023-03-19T23:39:18.696Z,99953.63
2023-03-19T23:41:49.615Z,99951.63
2023-03-19T23:44:19.464Z,99958.91
2023-03-19T23:46:50.805Z,99957.28
2023-03-19T23:49:29.789Z,99962.34
2023-03-19T23:51:57.885Z,99970.78
2023-03-19T23:54:30.707Z,99958.38
2023-03-19T23:57:00.043Z,99964.19
2023-03-19T23:59:30.641Z,99963.34
